sensor_id;sensor_type;location;lat;lon;timestamp;temperature;humidity
21627;DHT22;10975;47.872;12.972;2022-09-29T00:00:36;9.20;99.90
21627;DHT22;10975;47.872;12.972;2022-09-29T00:03:03;9.10;99.90
21627;DHT22;10975;47.872;12.972;2022-09-29T00:05:30;9.10;99.90
21627;DHT22;10975;47.872;12.972;2022-09-29T00:07:57;9.10;99.90
21627;DHT22;10975;47.872;12.972;2022-09-29T00:10:24;9.10;99.90
21627;DHT22;10975;47.872;12.972;2022-09-29T00:12:51;9.10;99.90
21627;DHT22;10975;47.872;12.972;2022-09-29T00:15:17;9.10;99.90
21627;DHT22;10975;47.872;12.972;2022-09-29T00:17:44;9.10;99.90
21627;DHT22;10975;47.872;12.972;2022-09-29T00:20:31;9.10;99.90
21627;DHT22;10975;47.872;12.972;2022-09-29T00:22:58;9.10;99.90
21627;DHT22;10975;47.872;12.972;2022-09-29T00:25:24;9.10;99.90
21627;DHT22;10975;47.872;12.972;2022-09-29T00:27:51;9.10;99.90
21627;DHT22;10975;47.872;12.972;2022-09-29T00:30:18;9.00;99.90
21627;DHT22;10975;47.872;12.972;2022-09-29T00:32:45;9.00;99.90
21627;DHT22;10975;47.872;12.972;2022-09-29T00:35:11;9.00;99.90
21627;DHT22;10975;47.872;12.972;2022-09-29T00:37:38;9.00;99.90
21627;DHT22;10975;47.872;12.972;2022-09-29T00:40:05;9.00;99.90
21627;DHT22;10975;47.872;12.972;2022-09-29T00:42:32;9.00;99.90
21627;DHT22;10975;47.872;12.972;2022-09-29T00:45:12;9.00;99.90
21627;DHT22;10975;47.872;12.972;2022-09-29T00:47:41;9.00;99.90
21627;DHT22;10975;47.872;12.972;2022-09-29T00:52:52;9.00;99.90
21627;DHT22;10975;47.872;12.972;2022-09-29T00:55:33;9.00;99.90
21627;DHT22;10975;47.872;12.972;2022-09-29T00:58:07;9.00;99.90
21627;DHT22;10975;47.872;12.972;2022-09-29T01:00:35;9.00;99.90
21627;DHT22;10975;47.872;12.972;2022-09-29T01:03:09;8.90;99.90
21627;DHT22;10975;47.872;12.972;2022-09-29T01:05:43;8.90;99.90
21627;DHT22;10975;47.872;12.972;2022-09-29T01:08:24;8.90;99.90
21627;DHT22;10975;47.872;12.972;2022-09-29T01:10:52;8.90;99.90
21627;DHT22;10975;47.872;12.972;2022-09-29T01:13:19;8.90;99.90
21627;DHT22;10975;47.872;12.972;2022-09-29T01:15:46;8.90;99.90
21627;DHT22;10975;47.872;12.972;2022-09-29T01:18:12;8.90;99.90
21627;DHT22;10975;47.872;12.972;2022-09-29T01:20:40;8.90;99.90
21627;DHT22;10975;47.872;12.972;2022-09-29T01:28:43;8.90;99.90
21627;DHT22;10975;47.872;12.972;2022-09-29T01:36:25;8.90;99.90
21627;DHT22;10975;47.872;12.972;2022-09-29T01:41:54;8.80;99.90
21627;DHT22;10975;47.872;12.972;2022-09-29T01:44:30;8.80;99.90
21627;DHT22;10975;47.872;12.972;2022-09-29T01:47:00;8.80;99.90
21627;DHT22;10975;47.872;12.972;2022-09-29T01:49:30;8.70;99.90
21627;DHT22;10975;47.872;12.972;2022-09-29T01:54:26;8.70;99.90
21627;DHT22;10975;47.872;12.972;2022-09-29T01:56:59;8.70;99.90
21627;DHT22;10975;47.872;12.972;2022-09-29T02:00:10;8.70;99.90
21627;DHT22;10975;47.872;12.972;2022-09-29T02:02:19;8.60;99.90
21627;DHT22;10975;47.872;12.972;2022-09-29T02:04:50;8.60;99.90
21627;DHT22;10975;47.872;12.972;2022-09-29T02:07:21;8.60;99.90
21627;DHT22;10975;47.872;12.972;2022-09-29T02:09:50;8.60;99.90
21627;DHT22;10975;47.872;12.972;2022-09-29T02:12:20;8.60;99.90
21627;DHT22;10975;47.872;12.972;2022-09-29T02:14:48;8.60;99.90
21627;DHT22;10975;47.872;12.972;2022-09-29T02:17:18;8.60;99.90
21627;DHT22;10975;47.872;12.972;2022-09-29T02:19:46;8.60;99.90
21627;DHT22;10975;47.872;12.972;2022-09-29T02:22:13;8.60;99.90
21627;DHT22;10975;47.872;12.972;2022-09-29T02:24:41;8.50;99.90
21627;DHT22;10975;47.872;12.972;2022-09-29T02:27:07;8.50;99.90
21627;DHT22;10975;47.872;12.972;2022-09-29T02:29:35;8.50;99.90
21627;DHT22;10975;47.872;12.972;2022-09-29T02:32:02;8.40;99.90
21627;DHT22;10975;47.872;12.972;2022-09-29T02:34:30;8.40;99.90
21627;DHT22;10975;47.872;12.972;2022-09-29T02:37:07;8.30;99.90
21627;DHT22;10975;47.872;12.972;2022-09-29T02:42:27;8.20;99.90
21627;DHT22;10975;47.872;12.972;2022-09-29T02:44:53;8.20;99.90
21627;DHT22;10975;47.872;12.972;2022-09-29T02:50:43;8.10;99.90
21627;DHT22;10975;47.872;12.972;2022-09-29T02:57:59;8.00;99.90
21627;DHT22;10975;47.872;12.972;2022-09-29T03:00:27;8.00;99.90
21627;DHT22;10975;47.872;12.972;2022-09-29T03:02:53;7.90;99.90
21627;DHT22;10975;47.872;12.972;2022-09-29T03:05:21;7.80;99.90
21627;DHT22;10975;47.872;12.972;2022-09-29T03:07:48;7.70;99.90
21627;DHT22;10975;47.872;12.972;2022-09-29T03:10:15;7.60;99.90
21627;DHT22;10975;47.872;12.972;2022-09-29T03:12:42;7.60;99.90
21627;DHT22;10975;47.872;12.972;2022-09-29T03:15:09;7.60;99.90
21627;DHT22;10975;47.872;12.972;2022-09-29T03:17:38;7.60;99.90
21627;DHT22;10975;47.872;12.972;2022-09-29T03:20:05;7.60;99.90
21627;DHT22;10975;47.872;12.972;2022-09-29T03:22:32;7.60;99.90
21627;DHT22;10975;47.872;12.972;2022-09-29T03:24:59;7.60;99.90
21627;DHT22;10975;47.872;12.972;2022-09-29T03:27:26;7.60;99.90
21627;DHT22;10975;47.872;12.972;2022-09-29T03:29:52;7.60;99.90
21627;DHT22;10975;47.872;12.972;2022-09-29T03:32:19;7.50;99.90
21627;DHT22;10975;47.872;12.972;2022-09-29T03:34:46;7.40;99.90
21627;DHT22;10975;47.872;12.972;2022-09-29T03:37:12;7.40;99.90
21627;DHT22;10975;47.872;12.972;2022-09-29T03:39:39;7.40;99.90
21627;DHT22;10975;47.872;12.972;2022-09-29T03:42:06;7.40;99.90
21627;DHT22;10975;47.872;12.972;2022-09-29T03:44:32;7.40;99.90
21627;DHT22;10975;47.872;12.972;2022-09-29T03:46:59;7.40;99.90
21627;DHT22;10975;47.872;12.972;2022-09-29T03:49:26;7.40;99.90
21627;DHT22;10975;47.872;12.972;2022-09-29T03:51:52;7.40;99.90
21627;DHT22;10975;47.872;12.972;2022-09-29T03:54:19;7.30;99.90
21627;DHT22;10975;47.872;12.972;2022-09-29T03:56:46;7.30;99.90
21627;DHT22;10975;47.872;12.972;2022-09-29T03:59:13;7.30;99.90
21627;DHT22;10975;47.872;12.972;2022-09-29T04:01:40;7.30;99.90
21627;DHT22;10975;47.872;12.972;2022-09-29T04:04:07;7.40;99.90
21627;DHT22;10975;47.872;12.972;2022-09-29T04:06:34;7.40;99.90
21627;DHT22;10975;47.872;12.972;2022-09-29T04:09:02;7.30;99.90
21627;DHT22;10975;47.872;12.972;2022-09-29T04:11:29;7.30;99.90
21627;DHT22;10975;47.872;12.972;2022-09-29T04:13:55;7.30;99.90
21627;DHT22;10975;47.872;12.972;2022-09-29T04:16:22;7.30;99.90
21627;DHT22;10975;47.872;12.972;2022-09-29T04:18:49;7.30;99.90
21627;DHT22;10975;47.872;12.972;2022-09-29T04:21:16;7.30;99.90
21627;DHT22;10975;47.872;12.972;2022-09-29T04:23:43;7.30;99.90
21627;DHT22;10975;47.872;12.972;2022-09-29T04:26:09;7.20;99.90
21627;DHT22;10975;47.872;12.972;2022-09-29T04:28:36;7.10;99.90
21627;DHT22;10975;47.872;12.972;2022-09-29T04:31:03;7.10;99.90
21627;DHT22;10975;47.872;12.972;2022-09-29T04:33:30;7.00;99.90
21627;DHT22;10975;47.872;12.972;2022-09-29T04:35:57;7.00;99.90
21627;DHT22;10975;47.872;12.972;2022-09-29T04:38:24;7.00;99.90
21627;DHT22;10975;47.872;12.972;2022-09-29T04:40:51;7.00;99.90
21627;DHT22;10975;47.872;12.972;2022-09-29T04:43:18;7.00;99.90
21627;DHT22;10975;47.872;12.972;2022-09-29T04:45:45;7.00;99.90
21627;DHT22;10975;47.872;12.972;2022-09-29T04:48:11;7.00;99.90
21627;DHT22;10975;47.872;12.972;2022-09-29T04:50:38;7.10;99.90
21627;DHT22;10975;47.872;12.972;2022-09-29T04:53:05;7.10;99.90
21627;DHT22;10975;47.872;12.972;2022-09-29T04:55:32;7.00;99.90
21627;DHT22;10975;47.872;12.972;2022-09-29T04:57:59;7.10;99.90
21627;DHT22;10975;47.872;12.972;2022-09-29T05:00:26;7.10;99.90
21627;DHT22;10975;47.872;12.972;2022-09-29T05:02:52;7.20;99.90
21627;DHT22;10975;47.872;12.972;2022-09-29T05:05:19;7.20;99.90
21627;DHT22;10975;47.872;12.972;2022-09-29T05:07:46;7.20;99.90
21627;DHT22;10975;47.872;12.972;2022-09-29T05:10:13;7.20;99.90
21627;DHT22;10975;47.872;12.972;2022-09-29T05:12:40;7.20;99.90
21627;DHT22;10975;47.872;12.972;2022-09-29T05:15:07;7.30;99.90
21627;DHT22;10975;47.872;12.972;2022-09-29T05:17:34;7.20;99.90
21627;DHT22;10975;47.872;12.972;2022-09-29T05:20:00;7.20;99.90
21627;DHT22;10975;47.872;12.972;2022-09-29T05:22:27;7.20;99.90
21627;DHT22;10975;47.872;12.972;2022-09-29T05:24:54;7.20;99.90
21627;DHT22;10975;47.872;12.972;2022-09-29T05:27:21;7.20;99.90
21627;DHT22;10975;47.872;12.972;2022-09-29T05:29:48;7.30;99.90
21627;DHT22;10975;47.872;12.972;2022-09-29T05:32:14;7.30;99.90
21627;DHT22;10975;47.872;12.972;2022-09-29T05:34:41;7.30;99.90
21627;DHT22;10975;47.872;12.972;2022-09-29T05:37:08;7.30;99.90
21627;DHT22;10975;47.872;12.972;2022-09-29T05:39:35;7.40;99.90
21627;DHT22;10975;47.872;12.972;2022-09-29T05:42:03;7.40;99.90
21627;DHT22;10975;47.872;12.972;2022-09-29T05:44:32;7.50;99.90
21627;DHT22;10975;47.872;12.972;2022-09-29T05:46:59;7.50;99.90
21627;DHT22;10975;47.872;12.972;2022-09-29T05:49:25;7.50;99.90
21627;DHT22;10975;47.872;12.972;2022-09-29T05:51:52;7.60;99.90
21627;DHT22;10975;47.872;12.972;2022-09-29T05:54:19;7.60;99.90
21627;DHT22;10975;47.872;12.972;2022-09-29T05:56:46;7.60;99.90
21627;DHT22;10975;47.872;12.972;2022-09-29T05:59:13;7.70;99.90
21627;DHT22;10975;47.872;12.972;2022-09-29T06:01:40;7.70;99.90
21627;DHT22;10975;47.872;12.972;2022-09-29T06:04:06;7.80;99.90
21627;DHT22;10975;47.872;12.972;2022-09-29T06:06:33;7.80;99.90
21627;DHT22;10975;47.872;12.972;2022-09-29T06:09:02;7.90;99.90
21627;DHT22;10975;47.872;12.972;2022-09-29T06:11:29;7.90;99.90
21627;DHT22;10975;47.872;12.972;2022-09-29T06:13:59;8.00;99.90
21627;DHT22;10975;47.872;12.972;2022-09-29T06:16:27;8.00;99.90
21627;DHT22;10975;47.872;12.972;2022-09-29T06:18:55;8.10;99.90
21627;DHT22;10975;47.872;12.972;2022-09-29T06:21:22;8.20;99.90
21627;DHT22;10975;47.872;12.972;2022-09-29T06:23:50;8.30;99.90
21627;DHT22;10975;47.872;12.972;2022-09-29T06:26:17;8.40;99.90
21627;DHT22;10975;47.872;12.972;2022-09-29T06:28:49;8.50;99.90
21627;DHT22;10975;47.872;12.972;2022-09-29T06:31:16;8.60;99.90
21627;DHT22;10975;47.872;12.972;2022-09-29T06:33:44;8.60;99.90
21627;DHT22;10975;47.872;12.972;2022-09-29T06:39:05;8.70;99.90
21627;DHT22;10975;47.872;12.972;2022-09-29T06:41:32;8.70;99.90
21627;DHT22;10975;47.872;12.972;2022-09-29T06:44:00;8.70;99.90
21627;DHT22;10975;47.872;12.972;2022-09-29T06:46:27;8.70;99.90
21627;DHT22;10975;47.872;12.972;2022-09-29T06:48:54;8.70;99.90
21627;DHT22;10975;47.872;12.972;2022-09-29T06:51:21;8.70;99.90
21627;DHT22;10975;47.872;12.972;2022-09-29T06:53:52;8.70;99.90
21627;DHT22;10975;47.872;12.972;2022-09-29T06:56:33;8.70;99.90
21627;DHT22;10975;47.872;12.972;2022-09-29T06:59:00;8.70;99.90
21627;DHT22;10975;47.872;12.972;2022-09-29T07:01:27;8.80;99.90
21627;DHT22;10975;47.872;12.972;2022-09-29T07:03:54;8.90;99.90
21627;DHT22;10975;47.872;12.972;2022-09-29T07:06:20;8.90;99.90
21627;DHT22;10975;47.872;12.972;2022-09-29T07:08:52;9.00;99.90
21627;DHT22;10975;47.872;12.972;2022-09-29T07:11:19;9.00;99.90
21627;DHT22;10975;47.872;12.972;2022-09-29T07:13:45;9.10;99.90
21627;DHT22;10975;47.872;12.972;2022-09-29T07:16:16;9.10;99.90
21627;DHT22;10975;47.872;12.972;2022-09-29T07:18:43;9.20;99.90
21627;DHT22;10975;47.872;12.972;2022-09-29T07:21:13;9.30;99.90
21627;DHT22;10975;47.872;12.972;2022-09-29T07:23:44;9.30;99.90
21627;DHT22;10975;47.872;12.972;2022-09-29T07:26:11;9.40;99.90
21627;DHT22;10975;47.872;12.972;2022-09-29T07:28:38;9.40;99.90
21627;DHT22;10975;47.872;12.972;2022-09-29T07:31:06;9.50;99.90
21627;DHT22;10975;47.872;12.972;2022-09-29T07:33:41;9.60;99.90
21627;DHT22;10975;47.872;12.972;2022-09-29T07:36:08;9.60;99.90
21627;DHT22;10975;47.872;12.972;2022-09-29T07:38:34;9.70;99.90
21627;DHT22;10975;47.872;12.972;2022-09-29T07:41:05;9.80;99.90
21627;DHT22;10975;47.872;12.972;2022-09-29T07:43:32;9.80;99.90
21627;DHT22;10975;47.872;12.972;2022-09-29T07:45:59;10.00;99.90
21627;DHT22;10975;47.872;12.972;2022-09-29T07:48:26;10.10;99.90
21627;DHT22;10975;47.872;12.972;2022-09-29T07:51:05;10.20;99.90
21627;DHT22;10975;47.872;12.972;2022-09-29T07:53:31;10.30;99.90
21627;DHT22;10975;47.872;12.972;2022-09-29T07:56:06;10.30;99.90
21627;DHT22;10975;47.872;12.972;2022-09-29T07:58:33;10.30;99.90
21627;DHT22;10975;47.872;12.972;2022-09-29T08:01:00;10.50;99.90
21627;DHT22;10975;47.872;12.972;2022-09-29T08:03:29;10.60;99.90
21627;DHT22;10975;47.872;12.972;2022-09-29T08:05:56;10.70;99.90
21627;DHT22;10975;47.872;12.972;2022-09-29T08:08:25;10.80;99.90
21627;DHT22;10975;47.872;12.972;2022-09-29T08:11:00;11.00;99.90
21627;DHT22;10975;47.872;12.972;2022-09-29T08:13:26;11.20;99.90
21627;DHT22;10975;47.872;12.972;2022-09-29T08:15:59;11.30;99.90
21627;DHT22;10975;47.872;12.972;2022-09-29T08:18:27;11.40;99.90
21627;DHT22;10975;47.872;12.972;2022-09-29T08:20:54;11.40;99.90
21627;DHT22;10975;47.872;12.972;2022-09-29T08:23:25;11.30;99.90
21627;DHT22;10975;47.872;12.972;2022-09-29T08:26:05;11.40;99.90
21627;DHT22;10975;47.872;12.972;2022-09-29T08:28:33;11.50;99.90
21627;DHT22;10975;47.872;12.972;2022-09-29T08:31:07;11.40;99.90
21627;DHT22;10975;47.872;12.972;2022-09-29T08:33:34;11.50;99.90
21627;DHT22;10975;47.872;12.972;2022-09-29T08:36:01;11.50;99.90
21627;DHT22;10975;47.872;12.972;2022-09-29T08:38:40;11.30;99.90
21627;DHT22;10975;47.872;12.972;2022-09-29T08:41:09;11.30;99.90
21627;DHT22;10975;47.872;12.972;2022-09-29T08:43:38;11.30;99.90
21627;DHT22;10975;47.872;12.972;2022-09-29T08:46:07;11.30;99.90
21627;DHT22;10975;47.872;12.972;2022-09-29T08:48:38;11.40;99.90
21627;DHT22;10975;47.872;12.972;2022-09-29T08:51:24;11.50;99.90
21627;DHT22;10975;47.872;12.972;2022-09-29T08:56:48;11.80;99.90
21627;DHT22;10975;47.872;12.972;2022-09-29T08:59:15;11.90;99.90
21627;DHT22;10975;47.872;12.972;2022-09-29T09:01:47;11.90;99.90
21627;DHT22;10975;47.872;12.972;2022-09-29T09:04:38;11.90;99.90
21627;DHT22;10975;47.872;12.972;2022-09-29T09:07:12;11.70;99.90
21627;DHT22;10975;47.872;12.972;2022-09-29T09:12:22;11.50;99.90
21627;DHT22;10975;47.872;12.972;2022-09-29T09:14:53;11.30;99.90
21627;DHT22;10975;47.872;12.972;2022-09-29T09:22:55;11.60;99.90
21627;DHT22;10975;47.872;12.972;2022-09-29T09:25:33;11.70;99.90
21627;DHT22;10975;47.872;12.972;2022-09-29T09:28:20;11.80;99.90
21627;DHT22;10975;47.872;12.972;2022-09-29T09:33:47;12.10;99.90
21627;DHT22;10975;47.872;12.972;2022-09-29T09:36:35;12.20;99.90
21627;DHT22;10975;47.872;12.972;2022-09-29T09:39:09;12.30;99.90
21627;DHT22;10975;47.872;12.972;2022-09-29T09:41:36;12.60;99.90
21627;DHT22;10975;47.872;12.972;2022-09-29T09:44:10;12.80;99.90
21627;DHT22;10975;47.872;12.972;2022-09-29T09:46:40;13.00;99.90
21627;DHT22;10975;47.872;12.972;2022-09-29T09:49:12;13.10;99.90
21627;DHT22;10975;47.872;12.972;2022-09-29T09:54:34;13.30;99.90
21627;DHT22;10975;47.872;12.972;2022-09-29T09:57:09;12.90;99.90
21627;DHT22;10975;47.872;12.972;2022-09-29T10:02:22;12.70;99.90
21627;DHT22;10975;47.872;12.972;2022-09-29T10:04:50;12.80;99.90
21627;DHT22;10975;47.872;12.972;2022-09-29T10:07:18;12.90;99.90
21627;DHT22;10975;47.872;12.972;2022-09-29T10:09:46;13.10;99.90
21627;DHT22;10975;47.872;12.972;2022-09-29T10:12:14;13.00;99.90
21627;DHT22;10975;47.872;12.972;2022-09-29T10:14:47;13.00;99.90
21627;DHT22;10975;47.872;12.972;2022-09-29T10:17:15;13.10;99.90
21627;DHT22;10975;47.872;12.972;2022-09-29T10:22:19;13.20;99.90
21627;DHT22;10975;47.872;12.972;2022-09-29T10:24:51;13.40;99.90
21627;DHT22;10975;47.872;12.972;2022-09-29T10:27:22;13.70;99.90
21627;DHT22;10975;47.872;12.972;2022-09-29T10:29:51;14.00;99.90
21627;DHT22;10975;47.872;12.972;2022-09-29T10:34:45;14.00;99.90
21627;DHT22;10975;47.872;12.972;2022-09-29T10:37:21;13.90;99.90
21627;DHT22;10975;47.872;12.972;2022-09-29T10:39:49;13.90;99.90
21627;DHT22;10975;47.872;12.972;2022-09-29T10:45:32;13.90;99.90
21627;DHT22;10975;47.872;12.972;2022-09-29T10:47:33;13.90;99.90
21627;DHT22;10975;47.872;12.972;2022-09-29T10:52:54;13.90;99.90
21627;DHT22;10975;47.872;12.972;2022-09-29T10:55:25;13.90;99.90
21627;DHT22;10975;47.872;12.972;2022-09-29T10:57:53;13.80;99.90
21627;DHT22;10975;47.872;12.972;2022-09-29T11:00:37;13.90;99.90
21627;DHT22;10975;47.872;12.972;2022-09-29T11:03:15;13.90;99.90
21627;DHT22;10975;47.872;12.972;2022-09-29T11:05:49;14.00;99.90
21627;DHT22;10975;47.872;12.972;2022-09-29T11:08:17;13.90;99.90
21627;DHT22;10975;47.872;12.972;2022-09-29T11:10:45;13.80;99.90
21627;DHT22;10975;47.872;12.972;2022-09-29T11:15:42;14.30;99.90
21627;DHT22;10975;47.872;12.972;2022-09-29T11:18:19;14.40;99.90
21627;DHT22;10975;47.872;12.972;2022-09-29T11:20:52;14.50;99.90
21627;DHT22;10975;47.872;12.972;2022-09-29T11:23:46;14.40;99.90
21627;DHT22;10975;47.872;12.972;2022-09-29T11:26:16;14.20;99.90
21627;DHT22;10975;47.872;12.972;2022-09-29T11:28:58;14.00;99.90
21627;DHT22;10975;47.872;12.972;2022-09-29T11:36:34;13.90;99.90
21627;DHT22;10975;47.872;12.972;2022-09-29T11:39:13;13.90;99.90
21627;DHT22;10975;47.872;12.972;2022-09-29T11:41:51;13.90;99.90
21627;DHT22;10975;47.872;12.972;2022-09-29T11:44:32;14.10;99.90
21627;DHT22;10975;47.872;12.972;2022-09-29T11:52:40;14.10;99.90
21627;DHT22;10975;47.872;12.972;2022-09-29T12:00:16;14.00;99.90
21627;DHT22;10975;47.872;12.972;2022-09-29T12:05:51;14.00;99.90
21627;DHT22;10975;47.872;12.972;2022-09-29T12:15:53;13.90;99.90
21627;DHT22;10975;47.872;12.972;2022-09-29T12:18:26;14.00;99.90
21627;DHT22;10975;47.872;12.972;2022-09-29T12:20:55;14.10;99.90
21627;DHT22;10975;47.872;12.972;2022-09-29T12:23:23;14.00;99.90
21627;DHT22;10975;47.872;12.972;2022-09-29T12:25:58;14.00;99.90
21627;DHT22;10975;47.872;12.972;2022-09-29T12:28:30;14.00;99.90
21627;DHT22;10975;47.872;12.972;2022-09-29T12:31:02;14.10;99.90
21627;DHT22;10975;47.872;12.972;2022-09-29T12:33:37;14.40;99.90
21627;DHT22;10975;47.872;12.972;2022-09-29T12:38:51;14.50;99.90
21627;DHT22;10975;47.872;12.972;2022-09-29T12:41:24;14.40;99.90
21627;DHT22;10975;47.872;12.972;2022-09-29T12:46:32;14.20;99.90
21627;DHT22;10975;47.872;12.972;2022-09-29T12:51:32;14.10;99.90
21627;DHT22;10975;47.872;12.972;2022-09-29T12:56:47;14.30;99.90
21627;DHT22;10975;47.872;12.972;2022-09-29T12:59:26;14.20;99.90
21627;DHT22;10975;47.872;12.972;2022-09-29T13:01:55;14.10;99.90
21627;DHT22;10975;47.872;12.972;2022-09-29T13:27:54;14.00;99.90
21627;DHT22;10975;47.872;12.972;2022-09-29T13:35:22;14.20;99.90
21627;DHT22;10975;47.872;12.972;2022-09-29T13:37:51;14.20;99.90
21627;DHT22;10975;47.872;12.972;2022-09-29T13:40:23;14.10;99.90
21627;DHT22;10975;47.872;12.972;2022-09-29T13:42:53;14.10;99.90
21627;DHT22;10975;47.872;12.972;2022-09-29T13:47:59;14.10;99.90
21627;DHT22;10975;47.872;12.972;2022-09-29T13:55:49;14.30;99.90
21627;DHT22;10975;47.872;12.972;2022-09-29T13:58:23;14.30;99.90
21627;DHT22;10975;47.872;12.972;2022-09-29T14:00:51;14.30;99.90
21627;DHT22;10975;47.872;12.972;2022-09-29T14:03:23;14.30;99.90
21627;DHT22;10975;47.872;12.972;2022-09-29T14:16:26;13.80;99.90
21627;DHT22;10975;47.872;12.972;2022-09-29T14:19:00;13.70;99.90
21627;DHT22;10975;47.872;12.972;2022-09-29T14:21:45;13.70;99.90
21627;DHT22;10975;47.872;12.972;2022-09-29T14:29:41;13.50;99.90
21627;DHT22;10975;47.872;12.972;2022-09-29T14:32:09;13.50;99.90
21627;DHT22;10975;47.872;12.972;2022-09-29T14:34:38;13.40;99.90
21627;DHT22;10975;47.872;12.972;2022-09-29T14:37:05;13.40;99.90
21627;DHT22;10975;47.872;12.972;2022-09-29T14:39:32;13.30;99.90
21627;DHT22;10975;47.872;12.972;2022-09-29T14:41:59;13.40;99.90
21627;DHT22;10975;47.872;12.972;2022-09-29T14:44:27;13.50;99.90
21627;DHT22;10975;47.872;12.972;2022-09-29T14:55:46;13.40;99.90
21627;DHT22;10975;47.872;12.972;2022-09-29T15:03:26;13.10;99.90
21627;DHT22;10975;47.872;12.972;2022-09-29T15:06:04;13.10;99.90
21627;DHT22;10975;47.872;12.972;2022-09-29T15:08:32;13.20;99.90
21627;DHT22;10975;47.872;12.972;2022-09-29T15:11:02;13.20;99.90
21627;DHT22;10975;47.872;12.972;2022-09-29T15:13:33;13.20;99.90
21627;DHT22;10975;47.872;12.972;2022-09-29T15:24:21;12.90;99.90
21627;DHT22;10975;47.872;12.972;2022-09-29T15:26:52;12.80;99.90
21627;DHT22;10975;47.872;12.972;2022-09-29T15:29:19;12.80;99.90
21627;DHT22;10975;47.872;12.972;2022-09-29T15:31:46;12.70;99.90
21627;DHT22;10975;47.872;12.972;2022-09-29T15:34:18;12.60;99.90
21627;DHT22;10975;47.872;12.972;2022-09-29T15:36:49;12.60;99.90
21627;DHT22;10975;47.872;12.972;2022-09-29T15:42:02;12.60;99.90
21627;DHT22;10975;47.872;12.972;2022-09-29T15:44:31;12.60;99.90
21627;DHT22;10975;47.872;12.972;2022-09-29T15:46:59;12.50;99.90
21627;DHT22;10975;47.872;12.972;2022-09-29T15:49:26;12.40;99.90
21627;DHT22;10975;47.872;12.972;2022-09-29T15:54:24;12.30;99.90
21627;DHT22;10975;47.872;12.972;2022-09-29T15:56:51;12.30;99.90
21627;DHT22;10975;47.872;12.972;2022-09-29T15:59:41;12.40;99.90
21627;DHT22;10975;47.872;12.972;2022-09-29T16:02:41;12.30;99.90
21627;DHT22;10975;47.872;12.972;2022-09-29T16:05:02;12.30;99.90
21627;DHT22;10975;47.872;12.972;2022-09-29T16:07:32;12.30;99.90
21627;DHT22;10975;47.872;12.972;2022-09-29T16:10:01;12.20;99.90
21627;DHT22;10975;47.872;12.972;2022-09-29T16:12:30;12.10;99.90
21627;DHT22;10975;47.872;12.972;2022-09-29T16:14:58;12.20;99.90
21627;DHT22;10975;47.872;12.972;2022-09-29T16:17:25;12.10;99.90
21627;DHT22;10975;47.872;12.972;2022-09-29T16:19:51;12.10;99.90
21627;DHT22;10975;47.872;12.972;2022-09-29T16:22:19;12.10;99.90
21627;DHT22;10975;47.872;12.972;2022-09-29T16:24:53;12.10;99.90
21627;DHT22;10975;47.872;12.972;2022-09-29T16:32:52;12.10;99.90
21627;DHT22;10975;47.872;12.972;2022-09-29T16:35:39;11.90;99.90
21627;DHT22;10975;47.872;12.972;2022-09-29T16:40:45;11.80;99.90
21627;DHT22;10975;47.872;12.972;2022-09-29T16:45:53;11.70;99.90
21627;DHT22;10975;47.872;12.972;2022-09-29T16:48:22;11.60;99.90
21627;DHT22;10975;47.872;12.972;2022-09-29T16:50:58;11.60;99.90
21627;DHT22;10975;47.872;12.972;2022-09-29T16:53:26;11.60;99.90
21627;DHT22;10975;47.872;12.972;2022-09-29T16:55:54;11.50;99.90
21627;DHT22;10975;47.872;12.972;2022-09-29T16:58:21;11.50;99.90
21627;DHT22;10975;47.872;12.972;2022-09-29T17:00:48;11.50;99.90
21627;DHT22;10975;47.872;12.972;2022-09-29T17:03:15;11.40;99.90
21627;DHT22;10975;47.872;12.972;2022-09-29T17:05:42;11.40;99.90
21627;DHT22;10975;47.872;12.972;2022-09-29T17:10:40;11.40;99.90
21627;DHT22;10975;47.872;12.972;2022-09-29T17:13:10;11.40;99.90
21627;DHT22;10975;47.872;12.972;2022-09-29T17:15:39;11.40;99.90
21627;DHT22;10975;47.872;12.972;2022-09-29T17:18:09;11.40;99.90
21627;DHT22;10975;47.872;12.972;2022-09-29T17:20:37;11.30;99.90
21627;DHT22;10975;47.872;12.972;2022-09-29T17:23:04;11.40;99.90
21627;DHT22;10975;47.872;12.972;2022-09-29T17:25:31;11.30;99.90
21627;DHT22;10975;47.872;12.972;2022-09-29T17:27:58;11.30;99.90
21627;DHT22;10975;47.872;12.972;2022-09-29T17:30:38;11.30;99.90
21627;DHT22;10975;47.872;12.972;2022-09-29T17:33:06;11.20;99.90
21627;DHT22;10975;47.872;12.972;2022-09-29T17:35:36;11.20;99.90
21627;DHT22;10975;47.872;12.972;2022-09-29T17:38:03;11.20;99.90
21627;DHT22;10975;47.872;12.972;2022-09-29T17:43:01;11.20;99.90
21627;DHT22;10975;47.872;12.972;2022-09-29T17:45:28;11.10;99.90
21627;DHT22;10975;47.872;12.972;2022-09-29T17:47:55;11.10;99.90
21627;DHT22;10975;47.872;12.972;2022-09-29T17:52:52;11.10;99.90
21627;DHT22;10975;47.872;12.972;2022-09-29T17:55:19;11.00;99.90
21627;DHT22;10975;47.872;12.972;2022-09-29T17:57:48;11.00;99.90
21627;DHT22;10975;47.872;12.972;2022-09-29T18:00:16;11.00;99.90
21627;DHT22;10975;47.872;12.972;2022-09-29T18:02:45;10.90;99.90
21627;DHT22;10975;47.872;12.972;2022-09-29T18:05:12;11.00;99.90
21627;DHT22;10975;47.872;12.972;2022-09-29T18:07:39;10.90;99.90
21627;DHT22;10975;47.872;12.972;2022-09-29T18:10:14;10.90;99.90
21627;DHT22;10975;47.872;12.972;2022-09-29T18:12:43;10.80;99.90
21627;DHT22;10975;47.872;12.972;2022-09-29T18:15:10;10.90;99.90
21627;DHT22;10975;47.872;12.972;2022-09-29T18:17:37;10.90;99.90
21627;DHT22;10975;47.872;12.972;2022-09-29T18:20:10;10.90;99.90
21627;DHT22;10975;47.872;12.972;2022-09-29T18:22:37;10.90;99.90
21627;DHT22;10975;47.872;12.972;2022-09-29T18:25:04;10.80;99.90
21627;DHT22;10975;47.872;12.972;2022-09-29T18:27:33;10.80;99.90
21627;DHT22;10975;47.872;12.972;2022-09-29T18:30:23;10.80;99.90
21627;DHT22;10975;47.872;12.972;2022-09-29T18:32:48;10.80;99.90
21627;DHT22;10975;47.872;12.972;2022-09-29T18:35:16;10.70;99.90
21627;DHT22;10975;47.872;12.972;2022-09-29T18:37:43;10.60;99.90
21627;DHT22;10975;47.872;12.972;2022-09-29T18:40:11;10.70;99.90
21627;DHT22;10975;47.872;12.972;2022-09-29T18:42:41;10.70;99.90
21627;DHT22;10975;47.872;12.972;2022-09-29T18:45:12;10.70;99.90
21627;DHT22;10975;47.872;12.972;2022-09-29T18:47:40;10.70;99.90
21627;DHT22;10975;47.872;12.972;2022-09-29T18:50:17;10.60;99.90
21627;DHT22;10975;47.872;12.972;2022-09-29T18:52:47;10.60;99.90
21627;DHT22;10975;47.872;12.972;2022-09-29T18:55:14;10.50;99.90
21627;DHT22;10975;47.872;12.972;2022-09-29T18:57:43;10.50;99.90